createdAt,value
2022-10-26T00:01:08.707Z,3.28
2022-10-26T00:03:42.517Z,3.29
2022-10-26T00:06:19.541Z,3.26
2022-10-26T00:08:52.164Z,3.26
2022-10-26T00:11:24.748Z,3.24
2022-10-26T00:13:56.726Z,3.21
2022-10-26T00:16:29.475Z,3.18
2022-10-26T00:19:01.630Z,3.14
2022-10-26T00:21:33.612Z,3.17
2022-10-26T00:24:05.845Z,3.12
2022-10-26T00:26:37.836Z,3.05
2022-10-26T00:29:11.524Z,2.96
2022-10-26T00:31:43.393Z,2.84
2022-10-26T00:34:15.310Z,2.73
2022-10-26T00:36:47.509Z,2.67
2022-10-26T00:39:20.706Z,2.56
2022-10-26T00:41:52.732Z,2.54
2022-10-26T00:44:51.522Z,2.47
2022-10-26T00:47:26.450Z,2.46
2022-10-26T00:50:01.131Z,2.43
2022-10-26T00:52:33.744Z,2.40
2022-10-26T00:55:07.395Z,2.43
2022-10-26T00:57:40.726Z,2.49
2022-10-26T01:00:12.829Z,2.50
2022-10-26T01:02:47.406Z,2.54
2022-10-26T01:05:20.414Z,2.55
2022-10-26T01:07:52.847Z,2.58
2022-10-26T01:10:26.238Z,2.60
2022-10-26T01:13:00.461Z,2.66
2022-10-26T01:15:41.869Z,2.71
2022-10-26T01:18:22.446Z,2.90
2022-10-26T01:21:16.337Z,2.81
2022-10-26T01:23:51.180Z,2.86
2022-10-26T01:26:31.671Z,2.90
2022-10-26T01:29:12.069Z,2.91
2022-10-26T01:31:46.861Z,2.93
2022-10-26T01:34:24.751Z,2.93
2022-10-26T01:37:02.315Z,2.93
2022-10-26T01:39:39.869Z,2.96
2022-10-26T01:42:14.530Z,2.96
2022-10-26T01:44:55.218Z,2.95
2022-10-26T01:47:28.708Z,2.96
2022-10-26T01:50:02.084Z,3.00
2022-10-26T01:52:34.473Z,3.01
2022-10-26T01:55:09.510Z,3.03
2022-10-26T01:57:41.940Z,3.04
2022-10-26T02:00:14.802Z,3.02
2022-10-26T02:03:04.761Z,2.97
2022-10-26T02:05:51.294Z,2.88
2022-10-26T02:08:31.888Z,2.79
2022-10-26T02:11:09.332Z,2.68
2022-10-26T02:13:49.852Z,2.53
2022-10-26T02:16:37.435Z,2.41
2022-10-26T02:19:15.294Z,2.28
2022-10-26T02:21:51.423Z,2.15
2022-10-26T02:24:26.182Z,2.11
2022-10-26T02:26:59.791Z,2.06
2022-10-26T02:29:34.410Z,1.97
2022-10-26T02:32:09.343Z,1.91
2022-10-26T02:34:43.536Z,1.85
2022-10-26T02:37:16.581Z,1.80
2022-10-26T02:39:51.150Z,1.92
2022-10-26T02:42:25.489Z,1.76
2022-10-26T02:45:03.460Z,1.75
2022-10-26T02:47:35.690Z,1.79
2022-10-26T02:50:08.018Z,1.80
2022-10-26T02:52:57.755Z,1.86
2022-10-26T02:55:32.671Z,1.92
2022-10-26T02:58:07.521Z,1.99
2022-10-26T03:00:40.079Z,2.07
2022-10-26T03:03:11.984Z,2.15
2022-10-26T03:05:44.578Z,2.22
2022-10-26T03:08:16.917Z,2.29
2022-10-26T03:10:48.861Z,2.33
2022-10-26T03:13:20.900Z,2.40
2022-10-26T03:15:54.457Z,2.48
2022-10-26T03:18:26.893Z,2.55
2022-10-26T03:20:58.882Z,2.64
2022-10-26T03:23:30.873Z,2.71
2022-10-26T03:26:02.963Z,2.76
2022-10-26T03:28:35.189Z,2.80
2022-10-26T03:31:07.353Z,2.83
2022-10-26T03:33:39.302Z,2.87
2022-10-26T03:36:11.447Z,2.89
2022-10-26T03:38:43.278Z,2.94
2022-10-26T03:41:15.576Z,2.96
2022-10-26T03:43:48.883Z,2.99
2022-10-26T03:46:20.809Z,3.01
2022-10-26T03:48:52.821Z,3.02
2022-10-26T03:51:24.918Z,3.03
2022-10-26T03:53:56.856Z,3.10
2022-10-26T03:56:29.074Z,3.08
2022-10-26T03:59:01.290Z,3.08
2022-10-26T04:01:33.429Z,3.12
2022-10-26T04:04:05.566Z,3.15
2022-10-26T04:06:37.570Z,3.15
2022-10-26T04:09:09.705Z,3.16
2022-10-26T04:11:42.011Z,3.17
2022-10-26T04:14:14.283Z,3.17
2022-10-26T04:16:46.234Z,3.20
2022-10-26T04:19:18.470Z,3.24
2022-10-26T04:21:54.795Z,3.26
2022-10-26T04:24:26.631Z,3.31
2022-10-26T04:26:58.741Z,3.35
2022-10-26T04:29:31.755Z,3.38
2022-10-26T04:32:04.106Z,3.44
2022-10-26T04:34:36.176Z,3.47
2022-10-26T04:37:09.290Z,3.55
2022-10-26T04:39:41.226Z,3.61
2022-10-26T04:42:14.299Z,3.70
2022-10-26T04:44:46.588Z,3.77
2022-10-26T04:47:18.944Z,3.85
2022-10-26T04:49:50.882Z,3.94
2022-10-26T04:52:22.827Z,4.01
2022-10-26T04:54:54.883Z,4.08
2022-10-26T04:57:27.044Z,4.14
2022-10-26T04:59:59.351Z,4.17
2022-10-26T05:02:33.209Z,4.20
2022-10-26T05:05:07.821Z,4.26
2022-10-26T05:07:39.186Z,4.28
2022-10-26T05:10:12.076Z,4.31
2022-10-26T05:12:44.098Z,4.33
2022-10-26T05:15:16.489Z,4.37
2022-10-26T05:17:49.471Z,4.41
2022-10-26T05:20:21.832Z,4.46
2022-10-26T05:22:58.799Z,4.52
2022-10-26T05:25:32.729Z,4.56
2022-10-26T05:28:09.706Z,4.63
2022-10-26T05:30:43.090Z,4.60
2022-10-26T05:33:16.335Z,4.60
2022-10-26T05:35:48.738Z,4.63
2022-10-26T05:38:21.511Z,4.58
2022-10-26T05:40:55.957Z,4.60
2022-10-26T05:43:28.805Z,4.60
2022-10-26T05:46:02.277Z,4.57
2022-10-26T05:48:34.878Z,4.60
2022-10-26T05:51:07.417Z,4.67
2022-10-26T05:53:40.189Z,4.73
2022-10-26T05:56:18.034Z,4.79
2022-10-26T05:58:50.718Z,4.89
2022-10-26T06:01:40.921Z,4.96
2022-10-26T06:04:21.505Z,5.06
2022-10-26T06:06:55.582Z,5.13
2022-10-26T06:09:27.999Z,5.19
2022-10-26T06:12:01.993Z,5.25
2022-10-26T06:14:34.577Z,5.34
2022-10-26T06:17:25.922Z,5.44
2022-10-26T06:20:08.765Z,5.51
2022-10-26T06:22:52.745Z,5.57
2022-10-26T06:25:30.682Z,5.59
2022-10-26T06:28:18.423Z,5.64
2022-10-26T06:30:50.622Z,5.70
2022-10-26T06:33:31.052Z,5.86
2022-10-26T06:36:23.746Z,5.98
2022-10-26T06:39:07.564Z,6.11
2022-10-26T06:41:40.057Z,6.28
2022-10-26T06:44:16.167Z,6.40
2022-10-26T06:46:51.245Z,6.50
2022-10-26T06:49:47.065Z,6.58
2022-10-26T06:52:37.323Z,6.66
2022-10-26T06:55:17.439Z,6.74
2022-10-26T06:57:51.061Z,6.84
2022-10-26T07:00:26.797Z,7.17
2022-10-26T07:03:00.327Z,7.54
2022-10-26T07:05:32.292Z,7.69
2022-10-26T07:08:04.484Z,7.71
2022-10-26T07:10:38.385Z,7.65
2022-10-26T07:13:11.580Z,7.63
2022-10-26T07:15:44.469Z,7.63
2022-10-26T07:18:17.221Z,7.63
2022-10-26T07:20:49.386Z,7.62
2022-10-26T07:23:22.988Z,7.66
2022-10-26T07:25:55.258Z,7.73
2022-10-26T07:28:27.516Z,7.82
2022-10-26T07:31:00.825Z,7.97
2022-10-26T07:33:35.821Z,7.90
2022-10-26T07:36:08.729Z,7.95
2022-10-26T07:38:41.632Z,7.97
2022-10-26T07:41:14.545Z,8.00
2022-10-26T07:43:46.620Z,8.06
2022-10-26T07:46:18.840Z,8.15
2022-10-26T07:48:50.851Z,8.30
2022-10-26T07:51:22.913Z,8.38
2022-10-26T07:53:54.996Z,8.42
2022-10-26T07:56:27.260Z,8.54
2022-10-26T07:58:59.359Z,8.64
2022-10-26T08:01:31.795Z,8.75
2022-10-26T08:04:04.168Z,8.75
2022-10-26T08:06:36.690Z,8.81
2022-10-26T08:09:09.623Z,8.84
2022-10-26T08:11:41.601Z,8.83
2022-10-26T08:14:13.578Z,8.76
2022-10-26T08:16:46.367Z,8.80
2022-10-26T08:19:18.357Z,8.88
2022-10-26T08:21:50.448Z,8.95
2022-10-26T08:24:22.482Z,9.01
2022-10-26T08:26:54.729Z,9.05
2022-10-26T08:29:27.116Z,9.14
2022-10-26T08:31:59.215Z,9.18
2022-10-26T08:34:31.611Z,9.18
2022-10-26T08:37:03.862Z,9.17
2022-10-26T08:39:36.863Z,9.16
2022-10-26T08:42:20.445Z,9.16
2022-10-26T08:44:57.012Z,9.16
2022-10-26T08:47:32.151Z,9.15
2022-10-26T08:50:12.909Z,9.20
2022-10-26T08:53:07.288Z,9.24
2022-10-26T08:56:13.890Z,9.28
2022-10-26T08:59:01.218Z,9.39
2022-10-26T09:01:34.691Z,9.49
2022-10-26T09:04:09.788Z,9.55
2022-10-26T09:06:59.512Z,9.50
2022-10-26T09:09:50.762Z,9.45
2022-10-26T09:12:34.621Z,9.51
2022-10-26T09:15:21.198Z,9.55
2022-10-26T09:18:04.414Z,9.54
2022-10-26T09:20:55.949Z,9.62
2022-10-26T09:23:42.402Z,9.71
2022-10-26T09:26:17.643Z,9.88
2022-10-26T09:28:50.558Z,10.03
2022-10-26T09:31:24.552Z,10.16
2022-10-26T09:33:56.779Z,10.14
2022-10-26T09:36:29.320Z,10.14
2022-10-26T09:39:22.371Z,10.17
2022-10-26T09:42:00.034Z,10.20
2022-10-26T09:44:43.454Z,10.16
2022-10-26T09:47:33.117Z,10.08
2022-10-26T09:50:17.450Z,10.03
2022-10-26T09:52:49.809Z,9.97
2022-10-26T09:55:23.079Z,9.95
2022-10-26T09:58:00.853Z,9.94
2022-10-26T10:03:22.706Z,9.84
2022-10-26T10:05:57.235Z,9.79
2022-10-26T10:08:29.214Z,9.80
2022-10-26T10:11:03.708Z,9.74
2022-10-26T10:13:39.400Z,9.66
2022-10-26T10:16:25.685Z,9.53
2022-10-26T10:19:00.371Z,9.48
2022-10-26T10:21:44.303Z,9.45
2022-10-26T10:24:31.166Z,9.37
2022-10-26T10:27:06.085Z,9.36
2022-10-26T10:29:43.340Z,9.33
2022-10-26T10:32:24.029Z,9.32
2022-10-26T10:34:57.767Z,9.31
2022-10-26T10:37:38.817Z,9.31
2022-10-26T10:40:26.003Z,9.29
2022-10-26T10:43:09.922Z,9.26
2022-10-26T10:45:42.269Z,9.22
2022-10-26T10:48:17.044Z,9.18
2022-10-26T10:51:03.813Z,9.19
2022-10-26T10:53:53.275Z,9.25
2022-10-26T10:56:30.776Z,9.28
2022-10-26T10:59:24.999Z,9.34
2022-10-26T11:02:00.311Z,9.39
2022-10-26T11:05:08.029Z,9.42
2022-10-26T11:07:46.023Z,9.40
2022-10-26T11:10:20.991Z,9.46
2022-10-26T11:12:58.777Z,9.51
2022-10-26T11:15:34.297Z,9.54
2022-10-26T11:18:11.716Z,9.57
2022-10-26T11:20:46.970Z,9.48
2022-10-26T11:23:45.999Z,9.45
2022-10-26T11:26:20.725Z,9.40
2022-10-26T11:28:55.635Z,9.42
2022-10-26T11:31:47.073Z,9.35
2022-10-26T11:34:27.769Z,9.34
2022-10-26T11:37:02.663Z,9.35
2022-10-26T11:39:49.355Z,9.31
2022-10-26T11:42:34.893Z,9.30
2022-10-26T11:45:18.722Z,9.29
2022-10-26T11:48:10.016Z,9.30
2022-10-26T11:50:45.108Z,9.30
2022-10-26T11:53:29.245Z,9.30
2022-10-26T11:56:03.161Z,9.28
2022-10-26T11:58:35.544Z,9.29
2022-10-26T12:01:13.193Z,9.30
2022-10-26T12:03:51.209Z,9.29
2022-10-26T12:06:25.950Z,9.32
2022-10-26T12:09:15.930Z,9.34
2022-10-26T12:11:51.370Z,9.32
2022-10-26T12:14:44.596Z,9.27
2022-10-26T12:17:22.178Z,9.20
2022-10-26T12:20:15.066Z,9.14
2022-10-26T12:22:48.169Z,9.13
2022-10-26T12:25:22.905Z,9.14
2022-10-26T12:27:55.535Z,9.13
2022-10-26T12:30:30.125Z,9.37
2022-10-26T12:33:07.584Z,9.17
2022-10-26T12:35:46.487Z,9.12
2022-10-26T12:38:27.943Z,9.08
2022-10-26T12:41:22.562Z,9.06
2022-10-26T12:43:57.355Z,8.97
2022-10-26T12:46:32.277Z,8.90
2022-10-26T12:49:04.442Z,8.84
2022-10-26T12:51:40.028Z,8.77
2022-10-26T12:54:15.255Z,8.76
2022-10-26T12:57:12.937Z,8.71
2022-10-26T12:59:50.806Z,8.69
2022-10-26T13:02:46.498Z,8.63
2022-10-26T13:05:39.275Z,8.55
2022-10-26T13:08:13.154Z,8.50
2022-10-26T13:11:00.445Z,8.42
2022-10-26T13:13:34.324Z,8.35
2022-10-26T13:16:06.706Z,8.22
2022-10-26T13:18:44.222Z,8.13
2022-10-26T13:21:19.196Z,8.06
2022-10-26T13:24:01.080Z,8.00
2022-10-26T13:26:34.210Z,7.91
2022-10-26T13:29:06.475Z,7.85
2022-10-26T13:31:44.437Z,7.78
2022-10-26T13:34:25.238Z,7.70
2022-10-26T13:37:06.203Z,7.65
2022-10-26T13:39:43.362Z,7.55
2022-10-26T13:42:18.749Z,7.46
2022-10-26T13:45:02.424Z,7.39
2022-10-26T13:48:10.469Z,7.33
2022-10-26T13:51:00.701Z,7.27
2022-10-26T13:53:44.557Z,7.20
2022-10-26T13:56:36.179Z,7.14
2022-10-26T13:59:13.718Z,7.08
2022-10-26T14:01:45.978Z,7.03
2022-10-26T14:04:19.515Z,6.95
2022-10-26T14:06:54.282Z,6.83
2022-10-26T14:09:28.617Z,6.72
2022-10-26T14:12:03.963Z,6.69
2022-10-26T14:14:40.029Z,6.59
2022-10-26T14:17:23.549Z,6.51
2022-10-26T14:19:55.742Z,6.39
2022-10-26T14:22:30.214Z,6.30
2022-10-26T14:25:02.901Z,6.23
2022-10-26T14:27:38.003Z,6.15
2022-10-26T14:30:27.665Z,6.08
2022-10-26T14:33:00.358Z,6.00
2022-10-26T14:35:39.847Z,6.01
2022-10-26T14:38:20.818Z,5.94
2022-10-26T14:40:52.700Z,5.87
2022-10-26T14:43:26.857Z,5.84
2022-10-26T14:45:58.818Z,5.87
2022-10-26T14:48:36.593Z,5.83
2022-10-26T14:51:11.835Z,5.79
2022-10-26T14:53:46.714Z,5.74
2022-10-26T14:56:28.861Z,5.73
2022-10-26T14:59:02.720Z,5.73
2022-10-26T15:01:36.852Z,5.72
2022-10-26T15:04:10.688Z,5.69
2022-10-26T15:06:45.746Z,5.70
2022-10-26T15:09:35.617Z,5.69
2022-10-26T15:12:09.821Z,5.64
2022-10-26T15:14:42.773Z,5.64
2022-10-26T15:17:23.796Z,5.79
2022-10-26T15:19:57.964Z,5.71
2022-10-26T15:22:32.324Z,5.70
2022-10-26T15:25:06.854Z,5.69
2022-10-26T15:27:39.043Z,5.69
2022-10-26T15:30:14.191Z,5.73
2022-10-26T15:32:46.759Z,5.73
2022-10-26T15:35:27.631Z,5.87
2022-10-26T15:38:01.489Z,5.88
2022-10-26T15:40:34.145Z,6.04
2022-10-26T15:43:06.389Z,6.08
2022-10-26T15:45:41.249Z,6.23
2022-10-26T15:48:29.417Z,6.30
2022-10-26T15:51:02.090Z,6.34
2022-10-26T15:53:34.154Z,6.41
2022-10-26T15:56:09.272Z,6.40
2022-10-26T15:58:41.689Z,6.50
2022-10-26T16:01:23.522Z,6.53
2022-10-26T16:03:56.338Z,6.56
2022-10-26T16:06:31.503Z,6.54
2022-10-26T16:09:05.824Z,6.59
2022-10-26T16:11:38.440Z,6.60
2022-10-26T16:14:13.496Z,6.59
2022-10-26T16:16:45.723Z,6.49
2022-10-26T16:19:30.287Z,6.37
2022-10-26T16:21:55.443Z,6.21
2022-10-26T16:24:28.655Z,6.08
2022-10-26T16:27:00.772Z,5.95
2022-10-26T16:29:33.069Z,5.81
2022-10-26T16:32:05.386Z,5.76
2022-10-26T16:34:37.522Z,5.68
2022-10-26T16:37:09.401Z,5.60
2022-10-26T16:39:41.448Z,5.59
2022-10-26T16:42:13.849Z,5.57
2022-10-26T16:44:46.050Z,5.55
2022-10-26T16:49:52.191Z,5.42
2022-10-26T16:52:24.080Z,5.48
2022-10-26T16:54:56.331Z,5.26
2022-10-26T16:57:28.759Z,5.17
2022-10-26T17:00:00.767Z,5.08
2022-10-26T17:02:33.373Z,5.04
2022-10-26T17:05:07.352Z,4.97
2022-10-26T17:07:39.512Z,4.99
2022-10-26T17:10:11.873Z,4.99
2022-10-26T17:12:44.388Z,4.98
2022-10-26T17:15:19.709Z,4.98
2022-10-26T17:17:50.511Z,4.97
2022-10-26T17:20:22.483Z,4.95
2022-10-26T17:22:54.497Z,4.91
2022-10-26T17:25:26.979Z,4.92
2022-10-26T17:27:59.702Z,4.95
2022-10-26T17:30:34.241Z,4.93
2022-10-26T17:33:06.936Z,4.94
2022-10-26T17:35:38.843Z,4.94
2022-10-26T17:38:10.759Z,4.93
2022-10-26T17:40:42.839Z,4.95
2022-10-26T17:43:14.967Z,4.95
2022-10-26T17:45:47.913Z,4.98
2022-10-26T17:48:19.833Z,4.98
2022-10-26T17:50:53.364Z,4.99
2022-10-26T17:53:25.624Z,5.01
2022-10-26T17:56:09.115Z,5.03
2022-10-26T17:58:41.165Z,5.02
2022-10-26T18:01:14.869Z,5.00
2022-10-26T18:03:47.338Z,5.00
2022-10-26T18:06:19.674Z,4.99
2022-10-26T18:08:51.929Z,4.96
2022-10-26T18:11:27.378Z,4.96
2022-10-26T18:13:59.741Z,4.96
2022-10-26T18:16:31.579Z,4.95
2022-10-26T18:19:05.691Z,4.94
2022-10-26T18:21:40.698Z,4.88
2022-10-26T18:24:12.872Z,5.04
2022-10-26T18:26:44.950Z,4.88
2022-10-26T18:29:17.093Z,4.91
2022-10-26T18:31:49.477Z,4.89
2022-10-26T18:34:22.171Z,4.88
2022-10-26T18:36:55.461Z,4.89
2022-10-26T18:39:27.294Z,4.82
2022-10-26T18:41:59.377Z,4.78
2022-10-26T18:44:31.437Z,4.72
2022-10-26T18:47:03.560Z,4.75
2022-10-26T18:49:35.713Z,4.73
2022-10-26T18:52:07.824Z,4.77
2022-10-26T18:54:39.704Z,4.77
2022-10-26T18:57:11.602Z,4.75
2022-10-26T18:59:44.010Z,4.74
2022-10-26T19:02:16.597Z,4.70
2022-10-26T19:04:48.683Z,4.72
2022-10-26T19:07:20.710Z,4.72
2022-10-26T19:09:52.941Z,4.69
2022-10-26T19:12:24.873Z,4.70
2022-10-26T19:14:56.965Z,4.75
2022-10-26T19:17:33.395Z,4.74
2022-10-26T19:20:05.941Z,4.78
2022-10-26T19:22:37.894Z,4.85
2022-10-26T19:25:10.654Z,4.91
2022-10-26T19:27:42.441Z,4.95
2022-10-26T19:30:15.540Z,5.00
2022-10-26T19:32:47.709Z,5.08
2022-10-26T19:35:19.684Z,5.06
2022-10-26T19:37:51.950Z,5.10
2022-10-26T19:40:24.170Z,5.11
2022-10-26T19:42:56.206Z,5.14
2022-10-26T19:45:28.136Z,5.20
2022-10-26T19:48:00.327Z,5.23
2022-10-26T19:50:32.337Z,5.24
2022-10-26T19:53:04.505Z,5.27
2022-10-26T19:55:36.481Z,5.26
2022-10-26T19:58:08.538Z,5.27
2022-10-26T20:00:41.424Z,5.28
2022-10-26T20:03:13.709Z,5.30
2022-10-26T20:05:45.609Z,5.30
2022-10-26T20:08:19.659Z,5.32
2022-10-26T20:10:53.101Z,5.35
2022-10-26T20:13:25.448Z,5.34
2022-10-26T20:15:57.476Z,5.34
2022-10-26T20:18:30.234Z,5.35
2022-10-26T20:21:02.202Z,5.35
2022-10-26T20:23:34.205Z,5.36
2022-10-26T20:28:38.403Z,5.37
2022-10-26T20:31:10.345Z,5.36
2022-10-26T20:33:42.460Z,5.39
2022-10-26T20:36:15.297Z,5.37
2022-10-26T20:38:47.632Z,5.34
2022-10-26T20:41:20.005Z,5.31
2022-10-26T20:43:54.478Z,5.31
2022-10-26T20:46:26.715Z,5.33
2022-10-26T20:48:58.668Z,5.50
2022-10-26T20:52:02.721Z,5.37
2022-10-26T20:54:33.305Z,5.34
2022-10-26T20:57:08.469Z,5.35
2022-10-26T20:59:43.311Z,5.37
2022-10-26T21:02:16.870Z,5.35
2022-10-26T21:04:49.025Z,5.32
2022-10-26T21:07:21.340Z,5.32
2022-10-26T21:09:53.708Z,5.31
2022-10-26T21:12:25.838Z,5.31
2022-10-26T21:14:57.867Z,5.34
2022-10-26T21:17:29.991Z,5.35
2022-10-26T21:20:03.299Z,5.39
2022-10-26T21:22:36.053Z,5.39
2022-10-26T21:25:08.309Z,5.40
2022-10-26T21:27:41.189Z,5.42
2022-10-26T21:30:14.200Z,5.43
2022-10-26T21:32:46.257Z,5.47
2022-10-26T21:35:18.495Z,5.47
2022-10-26T21:37:56.208Z,5.49
2022-10-26T21:40:27.472Z,5.50
2022-10-26T21:42:59.189Z,5.66
2022-10-26T21:45:31.667Z,5.50
2022-10-26T21:48:03.592Z,5.49
2022-10-26T21:50:35.617Z,5.47
2022-10-26T21:53:07.640Z,5.49
2022-10-26T21:55:39.486Z,5.49
2022-10-26T21:58:11.990Z,5.48
2022-10-26T22:00:43.969Z,5.48
2022-10-26T22:03:17.160Z,5.48
2022-10-26T22:05:55.205Z,5.48
2022-10-26T22:08:27.189Z,5.48
2022-10-26T22:10:59.704Z,5.47
2022-10-26T22:13:31.607Z,5.48
2022-10-26T22:16:05.986Z,5.48
2022-10-26T22:18:37.779Z,5.49
2022-10-26T22:21:10.226Z,5.67
2022-10-26T22:23:43.452Z,5.53
2022-10-26T22:26:17.678Z,5.52
2022-10-26T22:28:51.876Z,5.51
2022-10-26T22:34:09.829Z,5.53
2022-10-26T22:36:42.024Z,5.51
2022-10-26T22:39:14.062Z,5.50
2022-10-26T22:41:45.844Z,5.48
2022-10-26T22:44:17.968Z,5.49
2022-10-26T22:46:49.913Z,5.47
2022-10-26T22:49:22.027Z,5.45
2022-10-26T22:51:54.266Z,5.42
2022-10-26T22:54:26.548Z,5.40
2022-10-26T22:56:58.588Z,5.40
2022-10-26T22:59:30.545Z,5.43
2022-10-26T23:02:02.661Z,5.43
2022-10-26T23:04:36.305Z,5.40
2022-10-26T23:07:08.489Z,5.37
2022-10-26T23:09:40.404Z,5.36
2022-10-26T23:12:12.469Z,5.34
2022-10-26T23:14:44.411Z,5.29
2022-10-26T23:17:16.408Z,5.25
2022-10-26T23:19:48.415Z,5.20
2022-10-26T23:22:20.283Z,5.14
2022-10-26T23:24:52.182Z,5.06
2022-10-26T23:27:24.247Z,4.98
2022-10-26T23:29:56.250Z,4.93
2022-10-26T23:32:28.428Z,4.84
2022-10-26T23:35:00.345Z,4.77
2022-10-26T23:37:32.644Z,4.72
2022-10-26T23:40:04.972Z,4.68
2022-10-26T23:42:36.975Z,4.69
2022-10-26T23:45:09.166Z,4.71
2022-10-26T23:47:41.449Z,4.73
2022-10-26T23:50:13.382Z,4.74
2022-10-26T23:52:50.321Z,4.76
2022-10-26T23:55:22.261Z,4.73
2022-10-26T23:57:54.421Z,4.70
